Time;durP1;ratioP1;P1;durP2;ratioP2;P2;SDS_P1;SDS_P2;PMS_P1;PMS_P2;Temp;Humidity;BMP_temperature;BMP_pressure;BME280_temperature;BME280_humidity;BME280_pressure;Samples;Min_cycle;Max_cycle;Signal;HPM_P1;HPM_P2
2021/01/17 00:00:55;;;;;;;11.82;7.25;;;-1.70;1.00;;;;;;5056742;28;20650;-77
2021/01/17 00:03:22;;;;;;;15.90;7.95;;;-1.70;1.00;;;;;;5058266;28;20294;-78
2021/01/17 00:05:50;;;;;;;17.77;8.85;;;-1.80;1.00;;;;;;5063611;28;20227;-77
2021/01/17 00:08:19;;;;;;;10.90;7.50;;;-1.70;1.00;;;;;;5064960;28;20215;-80
2021/01/17 00:10:47;;;;;;;11.95;7.38;;;-1.60;1.00;;;;;;5062943;28;20207;-78
2021/01/17 00:13:16;;;;;;;8.52;6.53;;;-1.50;1.00;;;;;;5058375;28;20306;-79
2021/01/17 00:15:43;;;;;;;15.10;7.75;;;-1.40;1.00;;;;;;5064748;28;20731;-76
2021/01/17 00:18:11;;;;;;;15.30;8.15;;;-1.40;1.00;;;;;;5052907;28;20215;-77
2021/01/17 00:20:47;;;;;;;11.98;8.48;;;-1.50;1.00;;;;;;5057108;28;20309;-79
2021/01/17 00:23:14;;;;;;;12.80;7.65;;;-1.40;1.00;;;;;;5057199;28;20226;-77
2021/01/17 00:25:41;;;;;;;15.25;8.70;;;-1.40;1.00;;;;;;5055575;28;20258;-77
2021/01/17 00:28:08;;;;;;;11.80;7.65;;;-1.40;1.00;;;;;;5052702;28;20213;-78
2021/01/17 00:30:36;;;;;;;15.70;7.93;;;-1.40;1.00;;;;;;5056994;28;20755;-80
2021/01/17 00:33:05;;;;;;;9.35;7.50;;;-1.40;1.00;;;;;;5057213;28;20214;-76
2021/01/17 00:35:33;;;;;;;11.25;8.00;;;-1.40;1.00;;;;;;5056732;28;20225;-80
2021/01/17 00:38:02;;;;;;;10.68;7.00;;;-1.50;1.00;;;;;;5055561;28;20233;-77
2021/01/17 00:40:30;;;;;;;16.83;8.57;;;-1.40;1.00;;;;;;5054489;28;20222;-75
2021/01/17 00:42:57;;;;;;;13.18;7.82;;;-1.30;1.00;;;;;;5064347;28;20286;-79
2021/01/17 00:45:26;;;;;;;11.30;6.35;;;-1.20;1.00;;;;;;5057268;28;20227;-77
2021/01/17 00:47:55;;;;;;;10.77;6.50;;;-1.30;1.00;;;;;;5056811;28;20624;-78
2021/01/17 00:50:23;;;;;;;12.15;7.65;;;-1.40;1.00;;;;;;5053600;28;20219;-80
2021/01/17 00:52:55;;;;;;;11.57;7.13;;;-1.30;1.00;;;;;;5059845;28;20227;-77
2021/01/17 00:55:22;;;;;;;15.07;10.48;;;-1.20;1.00;;;;;;5050870;28;20484;-79
2021/01/17 00:57:50;;;;;;;14.07;9.55;;;-1.10;1.00;;;;;;5056116;28;20568;-78
2021/01/17 01:00:20;;;;;;;13.75;8.05;;;-1.00;1.00;;;;;;5065923;28;20264;-78
2021/01/17 01:02:47;;;;;;;12.80;7.70;;;-1.20;1.00;;;;;;5053732;28;20216;-77
2021/01/17 01:05:15;;;;;;;11.40;7.47;;;-1.20;1.00;;;;;;5064131;28;20232;-78
2021/01/17 01:07:43;;;;;;;13.13;8.00;;;-1.00;1.00;;;;;;5056065;28;20217;-79
2021/01/17 01:10:12;;;;;;;16.13;8.60;;;-0.90;1.00;;;;;;5064253;28;20664;-78
2021/01/17 01:12:39;;;;;;;17.35;9.90;;;-0.90;1.00;;;;;;5061016;28;20208;-79
2021/01/17 01:15:08;;;;;;;21.70;9.63;;;-1.10;1.00;;;;;;5053806;28;20233;-79
2021/01/17 01:17:35;;;;;;;16.63;8.05;;;-1.00;1.00;;;;;;5062562;28;20270;-79
2021/01/17 01:20:03;;;;;;;14.95;7.88;;;-0.90;1.00;;;;;;5049006;28;20671;-78
2021/01/17 01:22:31;;;;;;;13.73;8.65;;;-1.00;1.00;;;;;;5059321;28;20212;-77
2021/01/17 01:24:58;;;;;;;12.60;7.95;;;-1.10;1.00;;;;;;5055751;28;20239;-78
2021/01/17 01:27:25;;;;;;;14.35;9.15;;;-1.00;1.00;;;;;;5061593;28;20220;-78
2021/01/17 01:29:52;;;;;;;14.60;8.73;;;-1.00;1.00;;;;;;5064640;28;20213;-77
2021/01/17 01:32:20;;;;;;;16.85;8.20;;;-1.00;1.00;;;;;;5060197;28;20253;-79
2021/01/17 01:34:47;;;;;;;13.07;7.75;;;-1.10;1.00;;;;;;5056785;28;20301;-77
2021/01/17 01:37:14;;;;;;;13.55;8.68;;;-1.10;1.00;;;;;;5055507;28;20680;-79
2021/01/17 01:39:42;;;;;;;13.02;7.40;;;-1.10;1.00;;;;;;5063947;28;20234;-77
2021/01/17 01:42:10;;;;;;;16.13;9.73;;;-1.00;1.00;;;;;;5057177;28;20271;-78
2021/01/17 01:44:37;;;;;;;16.95;9.20;;;-1.00;1.00;;;;;;5057673;28;20230;-79
2021/01/17 01:47:05;;;;;;;16.63;8.68;;;-1.00;1.00;;;;;;5063679;28;20227;-78
2021/01/17 01:49:32;;;;;;;16.70;9.15;;;-0.90;1.00;;;;;;5049567;28;20560;-79
2021/01/17 01:52:01;;;;;;;16.60;9.55;;;-0.80;1.00;;;;;;5067352;28;20266;-79
2021/01/17 01:54:28;;;;;;;10.15;8.50;;;-0.90;1.00;;;;;;5059270;28;20755;-81
2021/01/17 01:56:57;;;;;;;12.30;8.00;;;-1.10;1.00;;;;;;5063888;28;20262;-79
2021/01/17 01:59:26;;;;;;;14.13;8.82;;;-1.20;1.00;;;;;;5050507;28;20228;-80
2021/01/17 02:01:56;;;;;;;14.73;8.57;;;-1.30;1.00;;;;;;5073015;28;20606;-79
2021/01/17 02:04:23;;;;;;;14.10;8.98;;;-1.20;1.00;;;;;;5068924;28;20236;-80
2021/01/17 02:07:14;;;;;;;15.23;9.10;;;-1.30;1.00;;;;;;5061904;28;20226;-79
2021/01/17 02:09:42;;;;;;;14.98;8.30;;;-1.30;1.00;;;;;;5056281;28;20688;-79
2021/01/17 02:12:20;;;;;;;14.63;8.35;;;-1.20;1.00;;;;;;5064737;28;20307;-78
2021/01/17 02:14:57;;;;;;;16.40;8.95;;;-1.20;1.00;;;;;;5062599;28;20912;-79
2021/01/17 02:17:29;;;;;;;15.38;8.70;;;-1.20;1.00;;;;;;5064003;28;20228;-78
2021/01/17 02:20:11;;;;;;;20.13;10.68;;;-1.20;1.00;;;;;;5064982;28;20278;-79
2021/01/17 02:22:48;;;;;;;11.18;8.27;;;-1.30;1.00;;;;;;5069267;28;20961;-79
2021/01/17 02:25:18;;;;;;;16.83;9.57;;;-1.30;1.00;;;;;;5062946;28;20238;-78
2021/01/17 02:27:47;;;;;;;15.10;8.82;;;-1.10;1.00;;;;;;5062962;28;20268;-79
2021/01/17 02:30:15;;;;;;;15.75;10.05;;;-1.10;1.00;;;;;;5059280;28;20197;-77
2021/01/17 02:32:47;;;;;;;17.38;10.05;;;-1.20;1.00;;;;;;5063521;28;20207;-77
2021/01/17 02:35:15;;;;;;;14.75;8.55;;;-1.10;1.00;;;;;;5055994;28;22432;-78
2021/01/17 02:37:57;;;;;;;14.75;8.50;;;-1.10;1.00;;;;;;5058301;28;20901;-77
2021/01/17 02:40:41;;;;;;;15.80;8.02;;;-1.10;1.00;;;;;;5061571;28;20229;-78
2021/01/17 02:43:09;;;;;;;18.13;9.07;;;-1.20;1.00;;;;;;5071041;28;20222;-77
2021/01/17 02:45:36;;;;;;;14.80;10.25;;;-1.10;1.00;;;;;;5067708;28;20239;-79
2021/01/17 02:48:04;;;;;;;14.35;9.38;;;-1.00;1.00;;;;;;5067155;28;20737;-82
2021/01/17 02:50:31;;;;;;;15.70;10.05;;;-1.10;1.00;;;;;;5069849;28;20207;-80
2021/01/17 02:53:04;;;;;;;15.50;9.23;;;-1.00;1.00;;;;;;5072077;28;20253;-80
2021/01/17 02:55:37;;;;;;;14.35;9.35;;;-1.00;1.00;;;;;;5064426;28;20232;-79
2021/01/17 02:58:09;;;;;;;16.92;9.60;;;-1.10;1.00;;;;;;5061417;28;20224;-78
2021/01/17 03:00:40;;;;;;;16.63;10.13;;;-1.10;1.00;;;;;;5060534;28;20231;-78
2021/01/17 03:03:08;;;;;;;16.52;12.10;;;-1.10;1.00;;;;;;5068243;28;20274;-79
2021/01/17 03:05:37;;;;;;;15.15;10.45;;;-1.10;1.00;;;;;;5064680;28;20589;-77
2021/01/17 03:08:06;;;;;;;20.15;10.25;;;-0.90;1.00;;;;;;5061172;28;20208;-78
2021/01/17 03:10:34;;;;;;;17.50;10.60;;;-0.90;1.00;;;;;;5054999;28;20221;-75
2021/01/17 03:13:02;;;;;;;16.10;9.60;;;-0.90;1.00;;;;;;5067471;28;20219;-79
2021/01/17 03:15:33;;;;;;;17.27;9.32;;;-0.90;1.00;;;;;;5065628;28;20609;-77
2021/01/17 03:18:02;;;;;;;16.40;11.02;;;-0.90;1.00;;;;;;5061043;28;20219;-76
2021/01/17 03:20:29;;;;;;;17.63;11.75;;;-0.60;1.00;;;;;;5054201;28;20236;-77
2021/01/17 03:22:56;;;;;;;20.60;11.70;;;-0.40;1.00;;;;;;5057266;28;20290;-78
2021/01/17 03:25:23;;;;;;;17.70;11.30;;;-0.40;1.00;;;;;;5064423;28;20239;-78
2021/01/17 03:27:51;;;;;;;16.95;10.68;;;-0.40;1.00;;;;;;5052515;28;20626;-77
2021/01/17 03:30:19;;;;;;;16.90;10.30;;;-0.20;1.00;;;;;;5057234;28;20208;-78
2021/01/17 03:32:46;;;;;;;17.23;10.52;;;-0.40;1.00;;;;;;5066216;28;22252;-78
2021/01/17 03:35:14;;;;;;;13.27;8.32;;;-0.50;1.00;;;;;;5057771;28;20239;-79
2021/01/17 03:37:41;;;;;;;20.30;11.65;;;-0.40;1.00;;;;;;5069459;28;20275;-78
2021/01/17 03:40:09;;;;;;;14.77;9.50;;;-0.30;1.00;;;;;;5054510;28;20600;-78
2021/01/17 03:42:36;;;;;;;20.13;12.10;;;-0.30;1.00;;;;;;5080006;28;20710;-78
2021/01/17 03:45:05;;;;;;;14.25;10.38;;;-0.30;1.00;;;;;;5065382;28;20718;-77
2021/01/17 03:47:32;;;;;;;15.05;10.35;;;-0.40;99.90;;;;;;5067861;28;20245;-78
2021/01/17 03:50:00;;;;;;;16.42;10.75;;;-0.30;99.90;;;;;;5063952;28;20208;-78
2021/01/17 03:52:27;;;;;;;17.67;10.88;;;-0.40;99.90;;;;;;5069218;28;21034;-79
2021/01/17 03:54:54;;;;;;;19.98;10.90;;;-0.40;99.90;;;;;;5055635;28;20286;-80
2021/01/17 03:57:21;;;;;;;20.52;10.30;;;-0.50;99.90;;;;;;5066848;28;20299;-79
2021/01/17 03:59:49;;;;;;;17.58;10.55;;;-0.40;99.90;;;;;;5059024;28;20241;-79
2021/01/17 04:02:17;;;;;;;14.98;9.55;;;-0.50;99.90;;;;;;5057654;28;20233;-78
2021/01/17 04:04:44;;;;;;;14.88;10.27;;;-0.40;99.90;;;;;;5057688;28;20244;-79
2021/01/17 04:07:11;;;;;;;17.13;10.85;;;-0.40;99.90;;;;;;5056012;28;20219;-79
2021/01/17 04:09:38;;;;;;;18.73;10.63;;;-0.40;1.00;;;;;;5058804;28;21038;-78
2021/01/17 04:12:07;;;;;;;15.60;10.10;;;-0.40;99.90;;;;;;5056516;28;20688;-80
2021/01/17 04:14:34;;;;;;;15.77;9.98;;;-0.60;99.90;;;;;;5071287;28;20236;-78
2021/01/17 04:17:01;;;;;;;14.77;10.30;;;-0.70;1.00;;;;;;5057796;28;20242;-78
2021/01/17 04:19:29;;;;;;;17.90;10.90;;;-0.60;1.00;;;;;;5067904;28;20231;-78
2021/01/17 04:21:56;;;;;;;19.45;10.32;;;-0.60;1.00;;;;;;5066773;28;20261;-77
2021/01/17 04:24:23;;;;;;;18.42;10.77;;;-0.60;1.00;;;;;;5064815;28;20247;-79
2021/01/17 04:26:56;;;;;;;17.25;10.20;;;-0.60;1.00;;;;;;5063826;28;20234;-78
2021/01/17 04:29:24;;;;;;;20.63;12.00;;;-0.60;1.00;;;;;;5065587;28;20226;-79
2021/01/17 04:31:51;;;;;;;16.88;10.48;;;-0.70;1.00;;;;;;5058736;28;20668;-77
2021/01/17 04:34:18;;;;;;;17.13;11.15;;;-0.70;1.00;;;;;;5061056;28;20244;-77
2021/01/17 04:36:47;;;;;;;17.85;11.13;;;-0.70;1.00;;;;;;5053618;28;20217;-77
2021/01/17 04:39:15;;;;;;;19.50;11.30;;;-0.60;1.00;;;;;;5052975;28;20209;-78
2021/01/17 04:41:43;;;;;;;18.08;10.45;;;-0.60;1.00;;;;;;5054810;28;20223;-78
2021/01/17 04:44:12;;;;;;;14.75;9.32;;;-0.60;1.00;;;;;;5058151;28;20238;-77
2021/01/17 04:46:40;;;;;;;15.98;11.25;;;-0.50;1.00;;;;;;5058756;28;20220;-78
2021/01/17 04:49:09;;;;;;;20.00;11.13;;;-0.40;1.00;;;;;;5054324;28;20203;-78
2021/01/17 04:51:36;;;;;;;17.15;10.75;;;-0.40;1.00;;;;;;5059980;28;20203;-78
2021/01/17 04:54:05;;;;;;;18.02;10.82;;;-0.40;1.00;;;;;;5059773;28;20261;-78
2021/01/17 04:56:34;;;;;;;18.30;11.45;;;-0.30;1.00;;;;;;5059202;28;20217;-77
2021/01/17 04:59:10;;;;;;;19.73;11.00;;;-0.40;1.00;;;;;;5057181;28;20219;-74
2021/01/17 05:02:01;;;;;;;20.65;11.80;;;-0.50;1.00;;;;;;5062094;28;20291;-79
2021/01/17 05:04:57;;;;;;;18.00;10.40;;;-0.50;1.00;;;;;;5055986;28;20244;-78
2021/01/17 05:07:29;;;;;;;17.50;11.43;;;-0.60;1.00;;;;;;5053674;28;20217;-78
2021/01/17 05:10:06;;;;;;;16.08;10.40;;;-0.60;1.00;;;;;;5051140;28;20220;-77
2021/01/17 05:12:39;;;;;;;18.95;12.15;;;-0.50;1.00;;;;;;5059613;28;20222;-78
2021/01/17 05:15:08;;;;;;;19.00;11.43;;;-0.40;1.00;;;;;;5058468;28;20236;-77
2021/01/17 05:17:39;;;;;;;16.15;11.15;;;-0.20;1.00;;;;;;5060379;28;20298;-78
2021/01/17 05:20:07;;;;;;;16.17;11.20;;;-0.10;1.00;;;;;;5065546;28;20231;-78
2021/01/17 05:22:35;;;;;;;18.92;11.13;;;0.00;99.90;;;;;;5064382;28;20214;-77
2021/01/17 05:25:06;;;;;;;22.45;12.30;;;0.10;99.90;;;;;;5056279;28;20707;-79
2021/01/17 05:27:33;;;;;;;16.77;11.05;;;0.20;99.90;;;;;;5055341;28;21090;-78
2021/01/17 05:30:01;;;;;;;20.73;12.30;;;0.20;99.90;;;;;;5058314;28;20212;-77
2021/01/17 05:32:28;;;;;;;17.48;11.02;;;0.30;99.90;;;;;;5064541;28;20211;-77
2021/01/17 05:34:55;;;;;;;17.13;10.77;;;0.30;99.90;;;;;;5061773;28;20274;-79
2021/01/17 05:37:23;;;;;;;21.05;11.30;;;0.30;99.90;;;;;;5063100;28;20213;-82
2021/01/17 05:40:01;;;;;;;18.50;10.70;;;0.40;99.90;;;;;;5066159;28;20738;-78
2021/01/17 05:42:30;;;;;;;21.90;11.98;;;0.30;99.90;;;;;;5073188;28;20210;-79
2021/01/17 05:45:09;;;;;;;15.75;11.60;;;0.40;99.90;;;;;;5067908;28;20254;-76
2021/01/17 05:47:37;;;;;;;18.92;10.75;;;0.40;99.90;;;;;;5065938;28;20268;-79
2021/01/17 05:50:07;;;;;;;16.50;10.13;;;0.50;99.90;;;;;;5065567;28;20225;-80
2021/01/17 05:52:35;;;;;;;15.85;11.48;;;0.40;99.90;;;;;;5060695;28;20878;-80
2021/01/17 05:55:03;;;;;;;14.68;10.10;;;0.40;99.90;;;;;;5069374;28;20234;-80
2021/01/17 05:57:32;;;;;;;18.02;12.02;;;0.40;99.90;;;;;;5056841;28;20249;-80
2021/01/17 06:00:01;;;;;;;19.98;11.30;;;0.40;99.90;;;;;;5069711;28;20228;-81
2021/01/17 06:02:29;;;;;;;17.58;9.50;;;0.50;99.90;;;;;;5063704;28;20243;-80
2021/01/17 06:04:58;;;;;;;18.25;11.38;;;0.40;1.00;;;;;;5062609;28;20234;-79
2021/01/17 06:07:27;;;;;;;15.05;10.10;;;0.40;1.00;;;;;;5057893;28;20214;-80
2021/01/17 06:09:58;;;;;;;17.15;10.70;;;0.40;1.00;;;;;;5075881;28;20724;-80
2021/01/17 06:12:33;;;;;;;19.92;12.52;;;0.50;1.00;;;;;;5065142;28;20215;-79
2021/01/17 06:15:06;;;;;;;19.90;10.85;;;0.50;99.90;;;;;;5063256;28;20243;-79
2021/01/17 06:17:35;;;;;;;17.42;11.13;;;0.50;1.00;;;;;;5058720;28;20627;-78
2021/01/17 06:20:05;;;;;;;18.48;12.15;;;0.40;99.90;;;;;;5060518;28;20330;-79
2021/01/17 06:22:33;;;;;;;18.15;11.55;;;0.40;1.00;;;;;;5074661;28;20213;-78
2021/01/17 06:25:02;;;;;;;19.10;10.77;;;0.30;1.00;;;;;;5065659;28;20290;-80
2021/01/17 06:27:29;;;;;;;16.70;10.65;;;0.20;1.00;;;;;;5069524;28;20669;-81
2021/01/17 06:29:58;;;;;;;16.83;9.70;;;0.20;1.00;;;;;;5062561;28;20221;-80
2021/01/17 06:32:26;;;;;;;18.70;10.20;;;0.20;1.00;;;;;;5069708;28;20713;-79
2021/01/17 06:34:55;;;;;;;14.32;10.52;;;0.20;1.00;;;;;;5061127;28;20241;-78
2021/01/17 06:37:24;;;;;;;14.68;9.30;;;0.00;1.00;;;;;;5060549;28;20218;-79
2021/01/17 06:39:53;;;;;;;16.55;11.40;;;0.20;1.00;;;;;;5061571;28;20215;-79
2021/01/17 06:42:21;;;;;;;16.35;10.70;;;0.30;1.00;;;;;;5066157;28;20226;-79
2021/01/17 06:44:50;;;;;;;18.63;10.88;;;0.20;1.00;;;;;;5066050;28;20528;-77
2021/01/17 06:47:20;;;;;;;18.42;13.00;;;0.30;1.00;;;;;;5067855;28;20486;-79
2021/01/17 06:49:48;;;;;;;20.30;12.80;;;0.30;1.00;;;;;;5070541;28;20254;-80
2021/01/17 06:52:16;;;;;;;17.98;10.38;;;0.40;1.00;;;;;;5065622;28;20748;-78
2021/01/17 06:54:45;;;;;;;16.23;10.30;;;0.30;1.00;;;;;;5060745;28;20360;-77
2021/01/17 06:57:13;;;;;;;18.98;10.57;;;0.40;1.00;;;;;;5053610;28;20208;-76
2021/01/17 06:59:41;;;;;;;17.55;11.35;;;0.30;1.00;;;;;;5055787;28;20822;-76
2021/01/17 07:02:38;;;;;;;20.05;11.73;;;0.30;1.00;;;;;;5061567;28;20241;-78
2021/01/17 07:05:44;;;;;;;19.02;11.95;;;0.30;1.00;;;;;;5066611;28;20266;-81
2021/01/17 07:08:48;;;;;;;16.58;10.65;;;0.10;1.00;;;;;;5057945;28;20227;-78
2021/01/17 07:11:22;;;;;;;16.90;11.23;;;0.00;1.00;;;;;;5055044;28;20207;-79
2021/01/17 07:13:50;;;;;;;18.70;11.50;;;-0.10;1.00;;;;;;5050540;28;20219;-78
2021/01/17 07:16:31;;;;;;;18.83;11.32;;;0.10;1.00;;;;;;5049226;28;20245;-77
2021/01/17 07:19:07;;;;;;;17.60;11.65;;;0.20;1.00;;;;;;5051288;28;20204;-76
2021/01/17 07:21:40;;;;;;;21.92;13.98;;;0.40;1.00;;;;;;5048707;28;20228;-79
2021/01/17 07:24:09;;;;;;;18.15;11.75;;;0.40;1.00;;;;;;5051297;28;22430;-78
2021/01/17 07:26:57;;;;;;;17.58;12.15;;;0.30;1.00;;;;;;5053492;28;20203;-79
2021/01/17 07:29:27;;;;;;;17.85;11.18;;;0.40;1.00;;;;;;5055232;28;20540;-79
2021/01/17 07:31:56;;;;;;;18.92;11.80;;;0.30;1.00;;;;;;5056975;28;20213;-78
2021/01/17 07:34:30;;;;;;;20.20;11.13;;;0.50;1.00;;;;;;5054880;28;20232;-79
2021/01/17 07:37:01;;;;;;;15.20;10.68;;;0.70;1.00;;;;;;5069540;28;20208;-80
2021/01/17 07:39:33;;;;;;;13.27;9.27;;;0.50;1.00;;;;;;5060148;28;20216;-78
2021/01/17 07:42:02;;;;;;;16.67;10.10;;;0.20;1.00;;;;;;5057766;28;20282;-80
2021/01/17 07:44:32;;;;;;;19.45;11.02;;;0.10;1.00;;;;;;5058640;28;20255;-80
2021/01/17 07:47:05;;;;;;;15.02;9.00;;;0.20;1.00;;;;;;5069865;28;20231;-80
2021/01/17 07:49:35;;;;;;;18.60;12.02;;;0.30;1.00;;;;;;5064081;28;20217;-81
2021/01/17 07:52:05;;;;;;;22.08;12.60;;;0.40;1.00;;;;;;5076604;28;20210;-81
2021/01/17 07:54:36;;;;;;;18.38;11.20;;;0.50;1.00;;;;;;5067291;28;20224;-80
2021/01/17 07:57:08;;;;;;;17.33;11.20;;;0.40;1.00;;;;;;5057793;28;20200;-79
2021/01/17 07:59:35;;;;;;;17.00;11.70;;;0.50;1.00;;;;;;5057567;28;20300;-79
2021/01/17 08:02:03;;;;;;;16.60;10.82;;;0.60;1.00;;;;;;5064614;28;20247;-78
2021/01/17 08:04:30;;;;;;;18.05;12.20;;;0.50;1.00;;;;;;5060325;28;20231;-79
2021/01/17 08:07:01;;;;;;;18.00;11.20;;;0.60;1.00;;;;;;5058567;28;20215;-78
2021/01/17 08:09:50;;;;;;;19.73;12.07;;;0.60;1.00;;;;;;5053849;28;20716;-80
2021/01/17 08:12:48;;;;;;;19.60;13.38;;;0.60;1.00;;;;;;5062976;28;20600;-79
2021/01/17 08:15:22;;;;;;;20.95;12.93;;;0.70;1.00;;;;;;5055521;28;20227;-79
2021/01/17 08:17:51;;;;;;;18.70;12.82;;;0.70;1.00;;;;;;5058274;28;20213;-76
2021/01/17 08:20:30;;;;;;;16.88;10.77;;;0.90;1.00;;;;;;5050343;28;20229;-79
2021/01/17 08:23:11;;;;;;;21.38;13.70;;;1.00;1.00;;;;;;5050120;28;20498;-80
2021/01/17 08:25:59;;;;;;;18.15;11.95;;;1.10;99.90;;;;;;5065013;28;20735;-80
2021/01/17 08:28:31;;;;;;;17.13;11.88;;;1.00;99.90;;;;;;5056703;28;20330;-81
2021/01/17 08:30:58;;;;;;;20.02;12.38;;;0.90;99.90;;;;;;5062427;28;20222;-81
2021/01/17 08:33:29;;;;;;;19.77;13.45;;;0.80;99.90;;;;;;5063009;28;20226;-80
2021/01/17 08:35:57;;;;;;;20.77;13.30;;;1.00;1.00;;;;;;5055044;28;20235;-82
2021/01/17 08:38:25;;;;;;;20.05;13.02;;;1.10;99.90;;;;;;5056264;28;20211;-75
2021/01/17 08:40:56;;;;;;;19.20;12.48;;;1.20;99.90;;;;;;5054518;28;20398;-80
2021/01/17 08:43:34;;;;;;;19.38;12.15;;;1.20;99.90;;;;;;5060888;28;20747;-78
2021/01/17 08:46:02;;;;;;;17.63;12.07;;;1.30;99.90;;;;;;5053860;28;20495;-79
2021/01/17 08:48:31;;;;;;;16.70;12.82;;;1.40;99.90;;;;;;5058504;28;20754;-80
2021/01/17 08:51:19;;;;;;;17.55;12.43;;;1.50;99.90;;;;;;5053892;28;20208;-79
2021/01/17 08:53:48;;;;;;;21.48;14.23;;;1.60;99.90;;;;;;5061911;28;20214;-80
2021/01/17 08:56:24;;;;;;;24.17;15.07;;;1.60;99.90;;;;;;5051599;28;20237;-81
2021/01/17 08:58:53;;;;;;;17.95;12.88;;;1.70;52.70;;;;;;5056118;28;20214;-78
2021/01/17 09:01:21;;;;;;;18.20;12.20;;;1.80;1.00;;;;;;5049074;28;20240;-80
2021/01/17 09:03:52;;;;;;;19.88;12.40;;;1.70;1.00;;;;;;5050707;28;20218;-76
2021/01/17 09:06:25;;;;;;;18.02;11.80;;;1.70;1.00;;;;;;5057421;28;20238;-77
2021/01/17 09:09:09;;;;;;;18.10;11.40;;;1.80;1.00;;;;;;5054899;28;20235;-79
2021/01/17 09:11:38;;;;;;;17.15;10.80;;;1.80;99.90;;;;;;5051938;28;20208;-78
2021/01/17 09:14:20;;;;;;;15.77;9.88;;;1.60;99.90;;;;;;5051518;28;20307;-78
2021/01/17 09:16:50;;;;;;;16.85;9.77;;;1.60;1.00;;;;;;5054550;28;20293;-78
2021/01/17 09:19:21;;;;;;;17.80;11.13;;;1.70;1.00;;;;;;5051759;28;20216;-78
2021/01/17 09:21:51;;;;;;;17.73;11.20;;;1.80;1.00;;;;;;5076099;28;21076;-81
2021/01/17 09:24:20;;;;;;;22.75;12.75;;;1.90;99.90;;;;;;5058186;28;20674;-79
2021/01/17 09:26:49;;;;;;;16.52;10.10;;;1.70;1.00;;;;;;5061417;28;20218;-80
2021/01/17 09:29:25;;;;;;;16.15;10.80;;;1.60;1.00;;;;;;5055817;28;20242;-78
2021/01/17 09:31:55;;;;;;;17.02;10.80;;;1.40;99.90;;;;;;5054606;28;20269;-81
2021/01/17 09:34:24;;;;;;;16.20;11.05;;;1.60;99.90;;;;;;5055663;28;20235;-80
2021/01/17 09:36:52;;;;;;;14.05;9.18;;;1.60;99.90;;;;;;5055781;28;21530;-79
2021/01/17 09:39:32;;;;;;;17.65;10.75;;;1.60;99.90;;;;;;5059866;28;20216;-81
2021/01/17 09:42:00;;;;;;;18.88;11.07;;;1.60;99.90;;;;;;5059198;28;20241;-80
2021/01/17 09:44:28;;;;;;;14.80;10.27;;;1.70;99.90;;;;;;5071662;28;20320;-79
2021/01/17 09:46:56;;;;;;;16.55;9.30;;;1.60;99.90;;;;;;5056929;28;20364;-80
2021/01/17 09:49:25;;;;;;;15.63;10.27;;;1.60;99.90;;;;;;5057381;28;20269;-80
2021/01/17 09:51:53;;;;;;;17.15;10.68;;;1.60;1.00;;;;;;5056045;28;20231;-80
2021/01/17 09:54:21;;;;;;;17.52;10.52;;;1.60;1.00;;;;;;5054087;28;20240;-80
2021/01/17 09:56:52;;;;;;;17.55;11.20;;;1.60;99.90;;;;;;5059267;28;20223;-80
2021/01/17 09:59:22;;;;;;;14.57;10.43;;;1.80;1.00;;;;;;5051711;28;20319;-78
2021/01/17 10:01:51;;;;;;;16.80;10.73;;;1.90;1.00;;;;;;5059589;28;20619;-78
2021/01/17 10:04:22;;;;;;;15.88;9.70;;;2.10;99.90;;;;;;5055552;28;20221;-80
2021/01/17 10:06:51;;;;;;;13.45;9.60;;;2.30;99.90;;;;;;5062811;28;20280;-79
2021/01/17 10:09:19;;;;;;;15.82;10.18;;;2.30;99.90;;;;;;5059530;28;20852;-81
2021/01/17 10:11:53;;;;;;;15.35;10.27;;;2.40;99.90;;;;;;5053978;28;20770;-80
2021/01/17 10:14:24;;;;;;;14.73;9.38;;;2.50;99.90;;;;;;5053961;28;20311;-80
2021/01/17 10:16:52;;;;;;;13.13;8.45;;;2.60;27.70;;;;;;5057540;28;20385;-79
2021/01/17 10:19:25;;;;;;;11.38;7.15;;;2.70;1.00;;;;;;5053715;28;20221;-79
2021/01/17 10:21:52;;;;;;;15.18;9.15;;;2.50;1.00;;;;;;5056956;28;21039;-77
2021/01/17 10:24:22;;;;;;;9.15;7.47;;;2.60;1.00;;;;;;5054596;28;20312;-78
2021/01/17 10:26:52;;;;;;;10.02;7.28;;;2.30;7.70;;;;;;5057099;28;20254;-79
2021/01/17 10:29:25;;;;;;;9.32;6.75;;;2.20;99.90;;;;;;5042022;28;20302;-78
2021/01/17 10:32:02;;;;;;;8.90;7.82;;;2.40;99.90;;;;;;5061859;28;20228;-84
2021/01/17 10:34:32;;;;;;;10.95;9.15;;;2.60;99.90;;;;;;5056626;28;20234;-80
2021/01/17 10:37:02;;;;;;;11.13;7.13;;;2.60;7.00;;;;;;5056281;28;20248;-78
2021/01/17 10:39:31;;;;;;;9.95;6.10;;;2.40;99.90;;;;;;5066767;28;20217;-76
2021/01/17 10:42:07;;;;;;;8.65;6.40;;;2.20;99.90;;;;;;5061744;28;20229;-80
2021/01/17 10:44:48;;;;;;;10.15;7.15;;;2.20;1.00;;;;;;5065467;28;20480;-79
2021/01/17 10:47:31;;;;;;;6.97;5.70;;;2.20;1.00;;;;;;5058294;28;20210;-80
2021/01/17 10:50:03;;;;;;;9.55;7.20;;;2.50;99.90;;;;;;5061174;28;20215;-79
2021/01/17 10:52:33;;;;;;;9.30;6.53;;;2.40;99.90;;;;;;5067859;28;20197;-78
2021/01/17 10:55:04;;;;;;;9.82;5.90;;;2.50;99.90;;;;;;5070268;28;20225;-79
2021/01/17 10:57:34;;;;;;;7.65;6.03;;;2.20;99.90;;;;;;5065099;28;20209;-80
2021/01/17 11:00:07;;;;;;;7.75;5.47;;;2.30;1.00;;;;;;5067895;28;20206;-80
2021/01/17 11:02:34;;;;;;;7.93;4.90;;;2.50;99.90;;;;;;5080139;28;20237;-78
2021/01/17 11:05:06;;;;;;;7.32;5.70;;;2.70;99.90;;;;;;5068141;28;20728;-77
2021/01/17 11:07:33;;;;;;;12.10;7.97;;;2.90;99.90;;;;;;5071983;28;20217;-79
2021/01/17 11:10:13;;;;;;;16.00;8.98;;;3.10;97.50;;;;;;5057218;28;20210;-82
2021/01/17 11:12:40;;;;;;;7.03;5.38;;;3.20;1.00;;;;;;5069049;28;20202;-78
2021/01/17 11:15:13;;;;;;;10.35;5.47;;;3.20;1.00;;;;;;5062564;28;20858;-78
2021/01/17 11:17:53;;;;;;;7.70;5.45;;;3.30;52.70;;;;;;5064835;28;20206;-79
2021/01/17 11:20:26;;;;;;;7.25;6.00;;;3.30;1.00;;;;;;5070522;28;20804;-80
2021/01/17 11:23:00;;;;;;;7.45;6.13;;;3.30;99.90;;;;;;5068437;28;20224;-78
2021/01/17 11:25:27;;;;;;;9.23;5.70;;;3.40;1.00;;;;;;5062024;28;20326;-78
2021/01/17 11:27:57;;;;;;;7.55;5.60;;;3.30;99.90;;;;;;5062414;28;20214;-78
2021/01/17 11:30:27;;;;;;;12.05;6.90;;;3.40;1.00;;;;;;5059523;28;20262;-77
2021/01/17 11:33:06;;;;;;;8.00;6.57;;;3.30;1.00;;;;;;5067454;28;20228;-78
2021/01/17 11:35:34;;;;;;;10.45;7.53;;;3.30;1.00;;;;;;5061261;28;20234;-78
2021/01/17 11:38:01;;;;;;;9.70;5.93;;;3.30;1.00;;;;;;5063751;28;20212;-78
2021/01/17 11:40:28;;;;;;;8.05;6.22;;;3.30;99.90;;;;;;5061516;28;20271;-78
2021/01/17 11:43:09;;;;;;;8.77;5.95;;;3.30;99.90;;;;;;5058880;28;20225;-78
2021/01/17 11:45:42;;;;;;;10.32;7.40;;;3.30;99.90;;;;;;5060020;28;20229;-78
2021/01/17 11:48:11;;;;;;;9.80;7.22;;;3.20;1.00;;;;;;5060163;28;20567;-78
2021/01/17 11:50:46;;;;;;;8.05;5.93;;;3.30;99.90;;;;;;5056532;28;20327;-78
2021/01/17 11:53:13;;;;;;;9.07;6.25;;;3.30;99.90;;;;;;5062118;28;20684;-78
2021/01/17 11:55:48;;;;;;;10.45;6.85;;;3.30;1.00;;;;;;5053287;28;20263;-78
2021/01/17 11:58:17;;;;;;;8.43;6.22;;;3.40;2.90;;;;;;5063211;28;20233;-78
2021/01/17 12:00:50;;;;;;;6.85;4.95;;;3.30;99.90;;;;;;5060690;28;20214;-78
2021/01/17 12:03:27;;;;;;;7.47;5.50;;;3.30;66.10;;;;;;5056055;28;20222;-76
2021/01/17 12:06:03;;;;;;;7.22;5.05;;;3.30;99.90;;;;;;5053320;28;20240;-79
2021/01/17 12:08:50;;;;;;;7.57;5.80;;;3.30;99.90;;;;;;5064673;28;20222;-78
2021/01/17 12:11:38;;;;;;;8.38;5.72;;;3.30;80.10;;;;;;5063930;28;20243;-78
2021/01/17 12:14:12;;;;;;;9.43;6.50;;;3.30;99.90;;;;;;5076925;28;20305;-77
2021/01/17 12:16:41;;;;;;;6.35;5.13;;;3.30;1.00;;;;;;5057147;28;20661;-78
2021/01/17 12:19:11;;;;;;;6.13;4.47;;;3.30;99.90;;;;;;5064560;28;20214;-79
2021/01/17 12:21:39;;;;;;;9.02;5.60;;;3.20;99.90;;;;;;5061058;28;20226;-79
2021/01/17 12:24:08;;;;;;;9.63;6.05;;;3.20;1.00;;;;;;5060315;28;20223;-79
2021/01/17 12:26:35;;;;;;;9.45;5.25;;;3.20;1.00;;;;;;5060980;28;20266;-78
2021/01/17 12:29:03;;;;;;;11.32;7.60;;;3.30;1.00;;;;;;5065992;28;20216;-79
2021/01/17 12:31:31;;;;;;;9.43;7.07;;;3.30;99.90;;;;;;5067355;28;20678;-77
2021/01/17 12:33:59;;;;;;;9.90;5.85;;;3.30;99.90;;;;;;5058697;28;20746;-77
2021/01/17 12:36:28;;;;;;;5.90;4.82;;;3.30;99.90;;;;;;5066162;28;20209;-76
2021/01/17 12:38:57;;;;;;;11.95;6.75;;;3.30;99.90;;;;;;5066856;28;20305;-77
2021/01/17 12:41:27;;;;;;;6.88;5.18;;;3.30;99.90;;;;;;5055621;28;20321;-76
2021/01/17 12:43:54;;;;;;;11.65;7.65;;;3.30;1.00;;;;;;5063209;28;20214;-78
2021/01/17 12:46:22;;;;;;;12.77;5.90;;;3.40;1.00;;;;;;5055234;28;20270;-76
2021/01/17 12:48:50;;;;;;;8.25;5.88;;;3.40;99.90;;;;;;5064339;28;20802;-78
2021/01/17 12:51:19;;;;;;;8.23;6.25;;;3.30;99.90;;;;;;5061814;28;20552;-78
2021/01/17 12:53:47;;;;;;;11.50;10.05;;;3.30;99.90;;;;;;5070792;28;20706;-77
2021/01/17 12:56:15;;;;;;;12.50;8.88;;;3.30;1.00;;;;;;5056859;28;20237;-77
2021/01/17 12:58:43;;;;;;;7.05;6.35;;;3.20;1.00;;;;;;5065581;28;20267;-77
2021/01/17 13:01:12;;;;;;;8.73;6.72;;;3.20;1.00;;;;;;5054920;28;20913;-76
2021/01/17 13:03:39;;;;;;;9.38;7.68;;;3.30;1.00;;;;;;5055687;28;21007;-77